NNG weather

Nanning Wuxu Airport
Nanning, Guangxi Autonomous Region, China

Public forecast

Using degrees Celsius for public forecast. Weather courtesy of forecast.io.

METAR (pilot weather report)

Retrieved 2019/06/27 12:00 UTC (15 minutes ago):

ZGNN 271200Z 15004MPS 9999 FEW020 30/26 Q0997 NOSIG

TAF (pilot weather forecast)

Retrieved 2019/06/27 12:00 UTC (15 minutes ago):

TAF ZGNN 270905Z 2712/2812 16004MPS 7000 FEW030 TX36/2807Z TN26/2722Z TEMPO 2805/2811 SCT023 FEW026CB